LSGS

Sion Airport

Airport
ICAO code
LSGS
IATA Code
SIR
Summary
ICAO Region
EUR
ICAO Territory
Location

Sion, Valais

Serving
Sion
Elevation
1585 ft
Coordinates
46° 13' 11" N , 7° 19' 36" E
KCC
Cfb
Metar
Observation
LSGS 171420Z 26012KT 9999 SCT130 28/14 Q1009
Station
Sion
Date/Time
2022-08-17 14:20:00
Wind direction
260°
Wind speed
12 kts
Lowest cloud amount
scattered clouds
Temperature
28°C
Dew point
14°C
Humidity
42%
QNH
1009 hPa
Weather condition
n/a

Sion Airport is the airport of the city of Sion, Switzerland and is located 2.5 km SW of Sion in the Rhone Valley.

Climatology

Temperate Marine climate/Oceanic climate (Köppen climate classification Cfb).

Runways

Designator Length Width Surface Rops
7/25 0 0 UNK Yes/Yes
07L/25R 555 30 GRS No/No
07R/25L 2000 40 ASP No/No

Airport map

Aerial View

SKYbrary Partners:

Safety knowledge contributed by: